KNBC

Beaufort MCAS / Merritt Field / Airport

Beaufort, South Carolina, USA
METAR KNBC 190656Z AUTO 00000KT 10SM CLR M03/M06 A3031 RMK AO2 SLP265 T10281056 $
Observed Flight Rules
Jan-19 @ 06:56 UTC (32 minutes ago) Visual Flight Rules
Wind Visibility Clouds
Calm 10 miles
  • Clear skies
Temperatures Readings
Current -3°C / 27°F
Dewpoint -6°C / 21°F
Humidity 80%
Altimeter 30.31" Hg
Pressure 1026.5 hPa
Elevation 12
METAR KNBC 190656Z AUTO 00000KT 10SM CLR M03/M06 A3031 RMK AO2 SLP265 T10281056 $
Observed Flight Rules
Jan-19 @ 06:56 UTC
(32 minutes ago)
VFR
Wind Visibility
Calm 10 miles
Clouds
  • Clear skies
Temperature Dewpoint
-3°C / 27°F -6°C / 21°F
Humidity Altimeter Pressure
80% 30.31" Hg 1026.5 hPa